עמוד ראשי
METAR-TAF:

METAR-TAF

שדות תעופה :

דהראן, ערב הסעודית

קו רוחב: 26-16N, קו אורך: 050-09E, גובה: 26מטר

תצפית מזג אוויר נוכחית

הדו"ח נערך לפני 32דקות, בשעה 20:00 UTC
רוח 4קשר מכיוון מערב/צפון-מערב
טמפרטורת 33 צלסיוס
לחות 24%
לחץ 999 hPa
ראות 10 קילומטר או יותר
ללא עננים שבסיסם נמוך מ 5000 רגל או קומולונימבוס

METAR: OEDR 132000Z 29004KT CAVOK 33/10 Q0999

זמן: 23:32 (20:32 UTC)

תחזית

הדו"ח נערך לפני 10 שעות ו 32דקות, בשעה 10:00 UTC
תחזית בתוקף מ 13 ב 12 UTC עד 14 ב 18 UTC
רוח 12קשר מכיוון צפון/צפון-מזרח
ראות 10 קילומטר או יותר
ללא עננים שבסיסם נמוך מ 5000 רגל או קומולונימבוס
יעשה מ
13 ב 16 UTC עד 13 ב 18 UTC
רוח 3קשר עם כיוונים משתנים
יעשה מ
14 ב 00 UTC עד 14 ב 02 UTC
רוח 8קשר מכיוון צפון/צפון-מערב

TAF: OEDR 131000Z 1312/1418 03012KT CAVOK BECMG 1316/1318 VRB03KT BECMG 1400/1402 34008KT

תצפיות ותחזיות מזג אוויר לגבי יותר מ- 4,000 שדות תעופה ברחבי העולם. דוחות METAR ו- TAF.

התחנות הזמינות מסומנות בנקודות צהובות ואדומות על גבי המפה.

העבר את העכבר לנקודה הצבעונית על מנת לראות את שם התחנה.

לאחר מכן, לחץ כדי לראות את תוכן ואת תחזיות מזג האוויר.

כדי לשנות את המפה: לחץ על הכפתורים הירוקים עם הפלוס השחור כדי להתקרב; על הכפתור הירוק עם המקף כדי להתרחק; או בחיצים הירוקים למפות סמוכות.


METAR-TAF: